METAR Data
IDs: Format: Raw Decoded Include TAF

Data at: 1655 UTC 26 Sep 2021

METAR for:LFQA (Reims/Prunay Aprt, GE, FR)
Text:LFQA 261630Z AUTO 20007KT CAVOK 20/16 Q1016
Temperature: 20.0°C ( 68°F)
Dewpoint: 16.0°C ( 61°F) [RH = 78%]
Pressure (altimeter):30.00 inches Hg (1016.0 mb)
Winds:from the SSW (200 degrees) at 8 MPH (7 knots; 3.6 m/s)
Visibility:6 or more sm (10+ km)
Ceiling:ceiling and visibility are OK
Clouds:unknown

TAF for:LFQA (Reims/Prunay Aprt, GE, FR)
Text:No data found